Time;durP1;ratioP1;P1;durP2;ratioP2;P2;SDS_P1;SDS_P2;PMS_P1;PMS_P2;Temp;Humidity;BMP_temperature;BMP_pressure;BME280_temperature;BME280_humidity;BME280_pressure;Samples;Min_cycle;Max_cycle;Signal;HPM_P1;HPM_P2
2023/07/12 00:00:57;;;;;;;;;;;;;;;28.56;30.33;100995.97;5061408;28;19931;-85
2023/07/12 00:03:22;;;;;;;;;;;;;;;28.53;30.63;100989.19;5053749;28;19920;-85
2023/07/12 00:05:48;;;;;;;;;;;;;;;28.52;30.40;100984.84;5054661;28;20372;-85
2023/07/12 00:08:33;;;;;;;;;;;;;;;28.52;30.57;100973.81;5058330;28;20494;-85
2023/07/12 00:10:59;;;;;;;;;;;;;;;28.51;30.52;100963.97;5054591;28;19917;-85
2023/07/12 00:13:24;;;;;;;;;;;;;;;28.47;30.46;100956.81;5056917;28;19939;-85
2023/07/12 00:15:50;;;;;;;;;;;;;;;28.45;30.42;100962.69;5055661;28;19963;-85
2023/07/12 00:18:17;;;;;;;;;;;;;;;28.41;30.92;100959.06;5055372;28;19932;-84
2023/07/12 00:20:43;;;;;;;;;;;;;;;28.39;30.89;100949.56;5051392;28;19925;-85
2023/07/12 00:23:14;;;;;;;;;;;;;;;28.36;30.51;100951.06;5053004;28;19920;-85
2023/07/12 00:25:40;;;;;;;;;;;;;;;28.35;30.88;100946.72;5051854;28;19924;-85
2023/07/12 00:28:17;;;;;;;;;;;;;;;28.34;30.99;100949.84;5055838;28;20139;-86
2023/07/12 00:30:42;;;;;;;;;;;;;;;28.34;30.91;100947.88;5052748;28;19928;-85
2023/07/12 00:33:09;;;;;;;;;;;;;;;28.28;30.96;100950.13;5054737;28;19923;-85
2023/07/12 00:35:35;;;;;;;;;;;;;;;28.25;30.84;100950.03;5052556;28;19940;-85
2023/07/12 00:38:00;;;;;;;;;;;;;;;28.24;30.62;100940.19;5052239;28;19924;-86
2023/07/12 00:40:52;;;;;;;;;;;;;;;28.20;30.97;100942.06;5049149;28;19928;-87
2023/07/12 00:43:25;;;;;;;;;;;;;;;28.11;30.88;100933.22;5025251;28;19955;-85
2023/07/12 00:45:52;;;;;;;;;;;;;;;28.09;31.37;100924.53;5050765;28;19931;-86
2023/07/12 00:48:19;;;;;;;;;;;;;;;28.08;31.34;100918.22;5052398;28;19925;-86
2023/07/12 00:50:46;;;;;;;;;;;;;;;28.08;30.97;100909.97;5050255;28;19921;-86
2023/07/12 00:53:13;;;;;;;;;;;;;;;28.05;30.89;100907.94;5051696;28;20451;-86
2023/07/12 00:55:56;;;;;;;;;;;;;;;27.99;31.15;100912.91;5052028;28;19928;-86
2023/07/12 00:58:25;;;;;;;;;;;;;;;27.92;31.57;100904.50;5053459;28;19936;-87
2023/07/12 01:00:51;;;;;;;;;;;;;;;27.84;31.33;100896.47;5051882;28;19921;-86
2023/07/12 01:03:18;;;;;;;;;;;;;;;27.83;31.43;100892.09;5050748;28;20490;-86
2023/07/12 01:05:44;;;;;;;;;;;;;;;27.84;31.31;100904.75;5050607;28;20205;-86
2023/07/12 01:08:11;;;;;;;;;;;;;;;27.75;31.47;100893.91;5052377;28;19975;-87
2023/07/12 01:10:37;;;;;;;;;;;;;;;27.70;31.52;100880.44;5051560;28;20387;-85
2023/07/12 01:13:02;;;;;;;;;;;;;;;27.61;32.02;100894.38;5052918;28;20166;-88
2023/07/12 01:15:29;;;;;;;;;;;;;;;27.58;32.03;100899.81;5050021;28;19924;-87
2023/07/12 01:17:54;;;;;;;;;;;;;;;27.54;32.06;100885.19;5051419;28;21302;-85
2023/07/12 01:20:21;;;;;;;;;;;;;;;27.48;31.75;100879.16;5052259;28;20391;-85
2023/07/12 01:22:46;;;;;;;;;;;;;;;27.43;32.15;100870.38;5049857;28;19920;-85
2023/07/12 01:25:12;;;;;;;;;;;;;;;27.37;32.27;100864.34;5050535;28;20324;-84
2023/07/12 01:27:37;;;;;;;;;;;;;;;27.39;32.00;100851.84;5050757;28;20070;-84
2023/07/12 01:30:03;;;;;;;;;;;;;;;27.42;31.92;100830.25;5054096;28;19928;-85
2023/07/12 01:32:30;;;;;;;;;;;;;;;27.32;32.33;100834.38;5054131;28;19920;-83
2023/07/12 01:34:55;;;;;;;;;;;;;;;27.33;32.45;100816.72;5050260;28;20269;-86
2023/07/12 01:37:20;;;;;;;;;;;;;;;27.33;32.26;100812.00;5051653;28;19944;-84
2023/07/12 01:39:46;;;;;;;;;;;;;;;27.38;32.34;100806.22;5051509;28;19952;-84
2023/07/12 01:42:11;;;;;;;;;;;;;;;27.49;32.03;100805.66;5051121;28;19970;-85
2023/07/12 01:44:37;;;;;;;;;;;;;;;27.51;32.72;100800.59;5052382;28;20380;-84
2023/07/12 01:47:02;;;;;;;;;;;;;;;27.58;31.78;100792.47;5059144;28;20399;-84
2023/07/12 01:49:28;;;;;;;;;;;;;;;27.59;32.05;100780.31;5055140;28;19921;-84
2023/07/12 01:51:53;;;;;;;;;;;;;;;27.64;31.87;100782.78;5052665;28;19924;-83
2023/07/12 01:54:18;;;;;;;;;;;;;;;27.62;32.02;100785.88;5054492;28;19917;-84
2023/07/12 01:56:43;;;;;;;;;;;;;;;27.64;32.08;100785.53;5052843;28;19920;-84
2023/07/12 01:59:09;;;;;;;;;;;;;;;27.67;31.82;100782.88;5052667;28;19954;-84
2023/07/12 02:01:34;;;;;;;;;;;;;;;27.68;31.98;100767.97;5057848;28;19927;-84
2023/07/12 02:03:59;;;;;;;;;;;;;;;27.64;31.93;100758.81;5056035;28;19924;-85
2023/07/12 02:06:25;;;;;;;;;;;;;;;27.62;32.01;100750.09;5052771;28;19921;-84
2023/07/12 02:08:50;;;;;;;;;;;;;;;27.66;31.93;100747.47;5053200;28;19951;-87
2023/07/12 02:11:15;;;;;;;;;;;;;;;27.64;32.26;100747.00;5051633;28;19963;-85
2023/07/12 02:13:41;;;;;;;;;;;;;;;27.64;32.02;100734.03;5058981;28;19990;-85
2023/07/12 02:16:06;;;;;;;;;;;;;;;27.68;31.82;100736.88;5053928;28;20328;-83
2023/07/12 02:18:32;;;;;;;;;;;;;;;27.71;31.93;100716.09;5053343;28;19964;-84
2023/07/12 02:20:57;;;;;;;;;;;;;;;27.72;31.98;100706.66;5053081;28;20294;-87
2023/07/12 02:23:22;;;;;;;;;;;;;;;27.72;31.93;100690.94;5057064;28;19924;-86
2023/07/12 02:25:48;;;;;;;;;;;;;;;27.73;31.88;100678.78;5052613;28;20365;-84
2023/07/12 02:28:13;;;;;;;;;;;;;;;27.76;31.91;100677.25;5051763;28;19924;-85
2023/07/12 02:30:41;;;;;;;;;;;;;;;27.76;31.92;100658.78;5056698;28;20467;-85
2023/07/12 02:33:07;;;;;;;;;;;;;;;27.77;31.89;100654.84;5071750;28;19928;-86
2023/07/12 02:35:32;;;;;;;;;;;;;;;27.75;31.80;100646.16;5052327;28;19921;-86
2023/07/12 02:37:58;;;;;;;;;;;;;;;27.71;31.86;100645.31;5053949;28;20029;-85
2023/07/12 02:40:25;;;;;;;;;;;;;;;27.70;32.06;100643.72;5054924;28;19978;-85
2023/07/12 02:42:50;;;;;;;;;;;;;;;27.69;32.06;100648.44;5054489;28;20206;-85
2023/07/12 02:45:16;;;;;;;;;;;;;;;27.67;32.15;100647.22;5051548;28;19931;-85
2023/07/12 02:47:41;;;;;;;;;;;;;;;27.65;32.23;100642.09;5054096;28;19927;-85
2023/07/12 02:50:06;;;;;;;;;;;;;;;27.64;32.16;100634.97;5054522;28;20089;-85
2023/07/12 02:52:32;;;;;;;;;;;;;;;27.66;32.21;100632.66;5056072;28;19917;-86
2023/07/12 02:54:58;;;;;;;;;;;;;;;27.63;32.34;100627.06;5062042;28;19928;-85
2023/07/12 02:57:23;;;;;;;;;;;;;;;27.54;32.36;100619.03;5054660;28;19920;-84
2023/07/12 02:59:49;;;;;;;;;;;;;;;27.50;32.15;100620.94;5053825;28;19924;-85
2023/07/12 03:02:14;;;;;;;;;;;;;;;27.51;32.40;100613.47;5057105;28;19920;-85
2023/07/12 03:04:40;;;;;;;;;;;;;;;27.50;32.44;100611.88;5059929;28;19969;-84
2023/07/12 03:07:06;;;;;;;;;;;;;;;27.49;32.38;100624.84;5057403;28;20317;-85
2023/07/12 03:09:31;;;;;;;;;;;;;;;27.48;32.40;100609.50;5059834;28;19928;-83
2023/07/12 03:11:57;;;;;;;;;;;;;;;27.47;32.65;100607.91;5060091;28;20002;-85
2023/07/12 03:14:22;;;;;;;;;;;;;;;27.44;32.41;100602.31;5058629;28;20010;-83
2023/07/12 03:16:48;;;;;;;;;;;;;;;27.38;32.43;100615.59;5058884;28;19921;-85
2023/07/12 03:19:17;;;;;;;;;;;;;;;27.39;32.55;100609.72;5054106;28;19917;-83
2023/07/12 03:21:42;;;;;;;;;;;;;;;27.39;32.52;100603.44;5054398;28;19923;-85
2023/07/12 03:24:08;;;;;;;;;;;;;;;27.42;32.37;100610.94;5056589;28;20415;-85
2023/07/12 03:26:34;;;;;;;;;;;;;;;27.39;32.62;100606.97;5060265;28;19933;-84
2023/07/12 03:28:59;;;;;;;;;;;;;;;27.39;32.69;100590.47;5058916;28;20438;-85
2023/07/12 03:31:26;;;;;;;;;;;;;;;27.42;32.62;100582.63;5061427;28;20482;-84
2023/07/12 03:33:51;;;;;;;;;;;;;;;27.38;32.78;100583.38;5059258;28;20728;-85
2023/07/12 03:36:18;;;;;;;;;;;;;;;27.37;32.69;100568.03;5051844;28;19999;-84
2023/07/12 03:38:43;;;;;;;;;;;;;;;27.39;32.59;100564.91;5055509;28;19920;-85
2023/07/12 03:41:10;;;;;;;;;;;;;;;27.38;32.62;100553.09;5058112;28;19927;-84
2023/07/12 03:43:35;;;;;;;;;;;;;;;27.43;32.74;100557.50;5072073;28;20011;-85
2023/07/12 03:46:01;;;;;;;;;;;;;;;27.46;32.79;100555.97;5061185;28;20471;-86
2023/07/12 03:48:26;;;;;;;;;;;;;;;27.46;32.85;100558.72;5053212;28;20411;-84
2023/07/12 03:50:54;;;;;;;;;;;;;;;27.47;32.71;100555.63;5063055;28;20427;-85
2023/07/12 03:53:20;;;;;;;;;;;;;;;27.47;33.24;100552.88;5056933;28;19924;-85
2023/07/12 03:55:46;;;;;;;;;;;;;;;27.43;32.66;100542.97;5060052;28;19920;-84
2023/07/12 03:58:13;;;;;;;;;;;;;;;27.40;32.82;100548.03;5061122;28;19916;-83
2023/07/12 04:00:42;;;;;;;;;;;;;;;27.42;32.99;100544.13;5061397;28;19921;-84
2023/07/12 04:03:07;;;;;;;;;;;;;;;27.39;32.87;100543.69;5058469;28;20385;-84
2023/07/12 04:05:36;;;;;;;;;;;;;;;27.38;33.02;100544.84;5056143;28;20022;-84
2023/07/12 04:08:02;;;;;;;;;;;;;;;27.36;33.09;100551.88;5061272;28;20007;-85
2023/07/12 04:10:27;;;;;;;;;;;;;;;27.34;33.15;100560.50;5057074;28;20011;-85
2023/07/12 04:12:53;;;;;;;;;;;;;;;27.36;32.98;100566.44;5052023;28;20273;-85
2023/07/12 04:15:18;;;;;;;;;;;;;;;27.37;33.25;100554.28;5059847;28;19927;-83
2023/07/12 04:17:43;;;;;;;;;;;;;;;27.40;33.14;100556.28;5054720;28;20569;-86
2023/07/12 04:20:09;;;;;;;;;;;;;;;27.42;33.09;100561.41;5052730;28;20396;-84
2023/07/12 04:22:35;;;;;;;;;;;;;;;27.45;33.07;100559.88;5059677;28;20410;-84
2023/07/12 04:25:00;;;;;;;;;;;;;;;27.50;33.28;100557.66;5052939;28;19925;-85
2023/07/12 04:27:25;;;;;;;;;;;;;;;27.55;32.91;100570.28;5055492;28;19921;-85
2023/07/12 04:29:51;;;;;;;;;;;;;;;27.54;32.88;100568.72;5051369;28;19932;-84
2023/07/12 04:32:16;;;;;;;;;;;;;;;27.55;33.05;100553.78;5058696;28;20510;-84
2023/07/12 04:34:41;;;;;;;;;;;;;;;27.57;33.16;100554.22;5051218;28;19921;-84
2023/07/12 04:37:06;;;;;;;;;;;;;;;27.61;32.98;100568.81;5051630;28;19979;-84
2023/07/12 04:39:32;;;;;;;;;;;;;;;27.66;32.99;100565.81;5053914;28;19924;-83
2023/07/12 04:41:57;;;;;;;;;;;;;;;27.71;32.96;100576.50;5059652;28;19923;-84
2023/07/12 04:44:22;;;;;;;;;;;;;;;27.78;33.08;100573.84;5052822;28;20015;-84
2023/07/12 04:46:48;;;;;;;;;;;;;;;27.86;32.88;100578.31;5061768;28;19921;-84
2023/07/12 04:49:13;;;;;;;;;;;;;;;27.91;33.02;100572.50;5053210;28;20423;-84
2023/07/12 04:51:38;;;;;;;;;;;;;;;27.95;33.21;100567.03;5051946;28;19974;-84
2023/07/12 04:54:04;;;;;;;;;;;;;;;27.98;33.03;100550.56;5049977;28;20478;-84
2023/07/12 04:56:29;;;;;;;;;;;;;;;28.04;33.13;100544.75;5058023;28;19973;-84
2023/07/12 04:58:54;;;;;;;;;;;;;;;28.06;33.20;100554.25;5052822;28;19921;-83
2023/07/12 05:01:21;;;;;;;;;;;;;;;28.11;32.93;100556.66;5055509;28;19925;-84
2023/07/12 05:03:47;;;;;;;;;;;;;;;28.15;33.03;100554.75;5055132;28;20289;-84
2023/07/12 05:06:12;;;;;;;;;;;;;;;28.21;33.01;100558.00;5058598;28;19917;-84
2023/07/12 05:08:38;;;;;;;;;;;;;;;28.26;33.00;100572.28;5058099;28;19925;-84
2023/07/12 05:11:03;;;;;;;;;;;;;;;28.32;32.94;100569.19;5052866;28;19920;-86
2023/07/12 05:13:28;;;;;;;;;;;;;;;28.37;32.85;100558.66;5054569;28;19920;-85
2023/07/12 05:15:54;;;;;;;;;;;;;;;28.41;32.98;100558.69;5052816;28;19944;-85
2023/07/12 05:18:20;;;;;;;;;;;;;;;28.44;33.05;100555.97;5050505;28;20051;-85
2023/07/12 05:20:45;;;;;;;;;;;;;;;28.48;32.80;100551.31;5050111;28;19916;-84
2023/07/12 05:23:11;;;;;;;;;;;;;;;28.52;32.86;100554.09;5049390;28;19920;-84
2023/07/12 05:25:36;;;;;;;;;;;;;;;28.57;32.95;100557.34;5048578;28;19920;-84
2023/07/12 05:28:02;;;;;;;;;;;;;;;28.62;33.08;100555.41;5048392;28;19924;-84
2023/07/12 05:30:28;;;;;;;;;;;;;;;28.67;32.98;100547.59;5061997;28;20350;-84
2023/07/12 05:32:54;;;;;;;;;;;;;;;28.73;32.95;100545.34;5053044;28;19920;-84
2023/07/12 05:35:19;;;;;;;;;;;;;;;28.78;33.00;100550.50;5057813;28;20377;-85
2023/07/12 05:37:45;;;;;;;;;;;;;;;28.76;33.13;100545.38;5053408;28;19995;-84
2023/07/12 05:40:11;;;;;;;;;;;;;;;28.82;33.13;100543.06;5056465;28;19921;-85
2023/07/12 05:42:40;;;;;;;;;;;;;;;28.93;33.06;100541.25;5052932;28;19989;-83
2023/07/12 05:45:05;;;;;;;;;;;;;;;29.02;32.84;100530.69;5065615;28;20483;-84
2023/07/12 05:47:31;;;;;;;;;;;;;;;29.11;32.96;100539.47;5053592;28;19921;-86
2023/07/12 05:49:56;;;;;;;;;;;;;;;29.11;33.12;100536.72;5052928;28;19929;-84
2023/07/12 05:52:22;;;;;;;;;;;;;;;29.12;33.29;100537.50;5052866;28;19921;-86
2023/07/12 05:54:47;;;;;;;;;;;;;;;29.12;32.72;100543.81;5052848;28;19974;-85
2023/07/12 05:57:12;;;;;;;;;;;;;;;29.10;32.92;100546.16;5051429;28;20347;-84
2023/07/12 05:59:38;;;;;;;;;;;;;;;29.09;33.19;100555.63;5051284;28;20068;-85
2023/07/12 06:02:03;;;;;;;;;;;;;;;29.11;33.68;100542.22;5052171;28;19927;-85
2023/07/12 06:04:28;;;;;;;;;;;;;;;29.11;33.45;100549.72;5054423;28;19923;-86
2023/07/12 06:06:54;;;;;;;;;;;;;;;29.14;33.47;100543.44;5052614;28;19924;-86
2023/07/12 06:09:19;;;;;;;;;;;;;;;29.16;33.58;100543.84;5049376;28;19925;-85
2023/07/12 06:11:44;;;;;;;;;;;;;;;29.17;33.31;100537.16;5052187;28;19927;-85
2023/07/12 06:14:12;;;;;;;;;;;;;;;29.18;33.57;100542.28;5051880;28;21315;-85
2023/07/12 06:16:37;;;;;;;;;;;;;;;29.22;33.70;100539.56;5051829;28;19920;-84
2023/07/12 06:19:03;;;;;;;;;;;;;;;29.27;33.71;100546.72;5058314;28;19920;-83
2023/07/12 06:21:28;;;;;;;;;;;;;;;29.30;33.61;100541.25;5057361;28;20380;-82
2023/07/12 06:23:57;;;;;;;;;;;;;;;29.32;33.74;100540.84;5059200;28;19920;-84
2023/07/12 06:26:23;;;;;;;;;;;;;;;29.36;33.92;100539.72;5061353;28;20820;-83
2023/07/12 06:28:48;;;;;;;;;;;;;;;29.38;33.98;100542.09;5060119;28;19929;-83
2023/07/12 06:31:13;;;;;;;;;;;;;;;29.43;33.81;100541.72;5062523;28;20442;-84
2023/07/12 06:33:38;;;;;;;;;;;;;;;29.49;33.74;100531.97;5057962;28;19921;-84
2023/07/12 06:36:04;;;;;;;;;;;;;;;29.56;33.77;100540.31;5063634;28;19927;-83
2023/07/12 06:38:29;;;;;;;;;;;;;;;29.60;33.79;100535.59;5056838;28;20387;-83
2023/07/12 06:40:55;;;;;;;;;;;;;;;29.67;33.91;100546.72;5051172;28;20396;-83
2023/07/12 06:43:20;;;;;;;;;;;;;;;29.74;33.82;100549.53;5054426;28;19920;-83
2023/07/12 06:45:45;;;;;;;;;;;;;;;29.78;33.61;100544.81;5051754;28;19920;-83
2023/07/12 06:48:11;;;;;;;;;;;;;;;29.82;33.90;100535.78;5061206;28;19973;-83
2023/07/12 06:50:36;;;;;;;;;;;;;;;29.86;34.03;100542.13;5061126;28;20011;-83
2023/07/12 06:53:01;;;;;;;;;;;;;;;29.89;33.74;100546.88;5054493;28;19924;-83
2023/07/12 06:55:26;;;;;;;;;;;;;;;29.92;33.94;100548.84;5052164;28;20380;-83
2023/07/12 06:57:52;;;;;;;;;;;;;;;29.95;34.04;100542.56;5052485;28;20364;-83
2023/07/12 07:00:17;;;;;;;;;;;;;;;29.98;33.74;100548.13;5052178;28;19921;-83
2023/07/12 07:02:42;;;;;;;;;;;;;;;30.01;34.09;100544.59;5050479;28;19960;-83
2023/07/12 07:05:08;;;;;;;;;;;;;;;30.05;33.85;100536.34;5056181;28;19927;-83
2023/07/12 07:07:33;;;;;;;;;;;;;;;30.05;34.25;100555.69;5049987;28;19973;-83
2023/07/12 07:09:59;;;;;;;;;;;;;;;30.03;34.07;100544.22;5054217;28;20222;-83
2023/07/12 07:12:24;;;;;;;;;;;;;;;30.01;33.95;100530.00;5050526;28;19975;-84
2023/07/12 07:14:49;;;;;;;;;;;;;;;29.95;34.28;100545.31;5050622;28;19935;-83
2023/07/12 07:17:14;;;;;;;;;;;;;;;29.93;33.76;100544.91;5052106;28;20460;-84
2023/07/12 07:19:40;;;;;;;;;;;;;;;29.89;34.57;100546.88;5051725;28;19920;-85
2023/07/12 07:22:05;;;;;;;;;;;;;;;29.88;34.38;100551.59;5052008;28;20392;-83
2023/07/12 07:24:31;;;;;;;;;;;;;;;29.91;34.58;100552.78;5050891;28;20012;-82
2023/07/12 07:26:56;;;;;;;;;;;;;;;29.91;34.09;100547.28;5048248;28;19921;-84
2023/07/12 07:29:21;;;;;;;;;;;;;;;29.88;34.27;100554.34;5051671;28;19978;-84
2023/07/12 07:31:46;;;;;;;;;;;;;;;29.85;34.40;100552.38;5052490;28;19978;-83
2023/07/12 07:34:13;;;;;;;;;;;;;;;29.85;34.27;100554.34;5052430;28;19927;-82
2023/07/12 07:36:38;;;;;;;;;;;;;;;29.84;34.37;100558.28;5052058;28;19923;-83
2023/07/12 07:39:04;;;;;;;;;;;;;;;29.85;34.26;100563.41;5051336;28;19920;-83
2023/07/12 07:41:30;;;;;;;;;;;;;;;29.89;34.57;100567.00;5050955;28;20540;-84
2023/07/12 07:43:55;;;;;;;;;;;;;;;29.91;34.44;100574.91;5054725;28;19920;-83
2023/07/12 07:46:22;;;;;;;;;;;;;;;29.99;34.56;100565.50;5052254;28;19928;-83
2023/07/12 07:48:47;;;;;;;;;;;;;;;30.11;34.19;100570.72;5057964;28;19924;-83
2023/07/12 07:51:13;;;;;;;;;;;;;;;30.23;34.08;100566.84;5053837;28;19966;-83
2023/07/12 07:53:39;;;;;;;;;;;;;;;30.33;33.76;100568.88;5051183;28;19921;-83
2023/07/12 07:56:04;;;;;;;;;;;;;;;30.42;33.70;100574.06;5054523;28;19920;-82
2023/07/12 07:58:30;;;;;;;;;;;;;;;30.51;34.02;100574.50;5049014;28;20349;-83
2023/07/12 08:00:55;;;;;;;;;;;;;;;30.68;33.82;100577.38;5054296;28;19920;-83
2023/07/12 08:03:20;;;;;;;;;;;;;;;30.86;33.48;100588.50;5053131;28;20671;-83
2023/07/12 08:05:46;;;;;;;;;;;;;;;30.97;33.72;100588.53;5052621;28;20340;-85
2023/07/12 08:08:11;;;;;;;;;;;;;;;30.98;33.76;100598.44;5055234;28;19932;-84
2023/07/12 08:10:36;;;;;;;;;;;;;;;31.05;34.08;100595.69;5055268;28;20278;-84
2023/07/12 08:13:03;;;;;;;;;;;;;;;31.16;33.90;100609.56;5054853;28;19924;-85
2023/07/12 08:15:28;;;;;;;;;;;;;;;31.28;33.85;100603.69;5051790;28;20296;-85
2023/07/12 08:17:54;;;;;;;;;;;;;;;31.45;33.48;100600.16;5052118;28;19920;-86
2023/07/12 08:20:20;;;;;;;;;;;;;;;31.56;34.17;100600.94;5052391;28;20366;-87
2023/07/12 08:22:45;;;;;;;;;;;;;;;31.72;33.54;100597.00;5050816;28;19921;-86
2023/07/12 08:25:11;;;;;;;;;;;;;;;31.88;33.70;100610.50;5048397;28;19944;-85
2023/07/12 08:27:37;;;;;;;;;;;;;;;32.10;34.04;100601.75;5047974;28;20381;-86
2023/07/12 08:30:04;;;;;;;;;;;;;;;32.32;34.00;100585.13;5048696;28;20453;-84
2023/07/12 08:32:32;;;;;;;;;;;;;;;32.57;33.55;100585.84;5048888;28;20311;-86
2023/07/12 08:34:58;;;;;;;;;;;;;;;32.85;33.45;100601.59;5050617;28;19916;-84
2023/07/12 08:37:24;;;;;;;;;;;;;;;33.01;33.01;100598.34;5049844;28;19928;-83
2023/07/12 08:39:49;;;;;;;;;;;;;;;33.10;32.86;100609.81;5048499;28;19955;-84
2023/07/12 08:42:18;;;;;;;;;;;;;;;33.08;32.37;100603.09;5049661;28;20860;-84
2023/07/12 08:44:43;;;;;;;;;;;;;;;33.04;32.40;100603.09;5049830;28;20428;-84
2023/07/12 08:47:13;;;;;;;;;;;;;;;32.98;32.20;100621.34;5050222;28;19987;-84
2023/07/12 08:49:39;;;;;;;;;;;;;;;32.87;32.21;100632.53;5050427;28;20029;-83
2023/07/12 08:52:10;;;;;;;;;;;;;;;32.77;31.76;100638.88;5050531;28;20429;-85
2023/07/12 08:54:36;;;;;;;;;;;;;;;32.64;31.84;100637.72;5051505;28;20367;-83
2023/07/12 08:57:01;;;;;;;;;;;;;;;32.61;31.94;100636.53;5050470;28;19924;-85
2023/07/12 08:59:26;;;;;;;;;;;;;;;32.55;31.97;100629.81;5049522;28;19929;-83
2023/07/12 09:01:53;;;;;;;;;;;;;;;32.48;32.30;100615.97;5052483;28;19921;-83
2023/07/12 09:04:22;;;;;;;;;;;;;;;32.41;32.28;100632.63;5051492;28;19959;-85
2023/07/12 09:06:48;;;;;;;;;;;;;;;32.29;32.70;100638.59;5050879;28;19917;-83
2023/07/12 09:09:13;;;;;;;;;;;;;;;32.23;33.04;100643.72;5054423;28;19966;-84
2023/07/12 09:11:39;;;;;;;;;;;;;;;32.20;33.11;100654.81;5053585;28;19917;-83
2023/07/12 09:14:04;;;;;;;;;;;;;;;32.16;32.71;100665.91;5053914;28;19920;-84
2023/07/12 09:16:34;;;;;;;;;;;;;;;32.12;32.96;100654.00;5052713;28;19920;-83
2023/07/12 09:19:11;;;;;;;;;;;;;;;32.08;33.02;100645.72;5053336;28;19970;-83
2023/07/12 09:21:37;;;;;;;;;;;;;;;32.04;32.66;100656.00;5053649;28;19924;-83
2023/07/12 09:24:09;;;;;;;;;;;;;;;32.05;32.56;100665.91;5054202;28;20019;-84
2023/07/12 09:26:35;;;;;;;;;;;;;;;32.08;32.45;100659.56;5052539;28;19921;-83
2023/07/12 09:29:07;;;;;;;;;;;;;;;32.08;32.18;100664.31;5054669;28;20367;-85
2023/07/12 09:31:34;;;;;;;;;;;;;;;32.20;32.27;100677.00;5053900;28;20273;-85
2023/07/12 09:34:04;;;;;;;;;;;;;;;32.24;32.26;100666.69;5056543;28;19942;-83
2023/07/12 09:36:29;;;;;;;;;;;;;;;32.28;32.12;100676.59;5053516;28;19917;-84
2023/07/12 09:39:02;;;;;;;;;;;;;;;32.30;32.35;100678.97;5056003;28;20341;-83
2023/07/12 09:41:28;;;;;;;;;;;;;;;32.39;31.95;100696.81;5053290;28;19963;-84
2023/07/12 09:43:54;;;;;;;;;;;;;;;32.63;31.94;100686.84;5054919;28;19920;-83
2023/07/12 09:46:25;;;;;;;;;;;;;;;32.81;31.59;100691.59;5052740;28;19924;-83
2023/07/12 09:48:59;;;;;;;;;;;;;;;32.99;31.42;100681.22;5054302;28;20092;-84
2023/07/12 09:51:29;;;;;;;;;;;;;;;33.19;31.40;100687.88;5054842;28;19924;-84
2023/07/12 09:53:57;;;;;;;;;;;;;;;33.35;31.36;100679.88;5055263;28;19920;-86
2023/07/12 09:56:38;;;;;;;;;;;;;;;33.41;31.10;100685.03;5054940;28;20454;-85
2023/07/12 09:59:06;;;;;;;;;;;;;;;33.49;31.09;100690.13;5059717;28;20043;-85
2023/07/12 10:01:42;;;;;;;;;;;;;;;33.56;30.82;100690.06;5057522;28;20007;-85
2023/07/12 10:04:42;;;;;;;;;;;;;;;33.57;31.18;100701.97;5052697;28;19959;-85
2023/07/12 10:07:31;;;;;;;;;;;;;;;33.60;31.00;100706.75;4999899;28;19921;-85
2023/07/12 10:09:57;;;;;;;;;;;;;;;33.70;31.20;100705.88;5057943;28;19924;-86
2023/07/12 10:12:24;;;;;;;;;;;;;;;33.92;30.88;100712.88;5053238;28;19923;-86
2023/07/12 10:14:52;;;;;;;;;;;;;;;34.12;30.79;100713.16;5058309;28;19916;-87
2023/07/12 10:17:18;;;;;;;;;;;;;;;34.20;30.58;100713.88;5058296;28;19941;-84
2023/07/12 10:19:45;;;;;;;;;;;;;;;34.23;30.47;100716.63;5055311;28;20017;-85
2023/07/12 10:22:28;;;;;;;;;;;;;;;34.28;30.66;100720.16;5060544;28;19925;-86
2023/07/12 10:24:54;;;;;;;;;;;;;;;34.41;30.75;100710.94;5054162;28;20007;-85
2023/07/12 10:27:28;;;;;;;;;;;;;;;34.63;30.83;100719.84;5055837;28;20059;-86
2023/07/12 10:29:57;;;;;;;;;;;;;;;34.86;30.12;100724.81;5059631;28;19931;-86
2023/07/12 10:32:25;;;;;;;;;;;;;;;34.99;29.93;100734.19;5058669;28;19936;-87
2023/07/12 10:35:03;;;;;;;;;;;;;;;35.11;29.83;100733.66;5058522;28;19986;-85
2023/07/12 10:37:40;;;;;;;;;;;;;;;35.23;29.59;100731.53;5055150;28;19963;-86
2023/07/12 10:40:12;;;;;;;;;;;;;;;35.32;29.62;100738.16;5056301;28;19921;-85
2023/07/12 10:42:43;;;;;;;;;;;;;;;35.56;29.69;100744.66;5061893;28;20371;-85
2023/07/12 10:45:16;;;;;;;;;;;;;;;35.73;29.48;100746.41;5061295;28;19967;-85
2023/07/12 10:47:42;;;;;;;;;;;;;;;35.72;29.42;100758.75;5058604;28;19920;-85
2023/07/12 10:50:26;;;;;;;;;;;;;;;35.78;29.00;100758.28;5052143;28;19960;-84
2023/07/12 10:52:59;;;;;;;;;;;;;;;35.76;29.12;100760.72;5060158;28;20066;-88
2023/07/12 10:55:47;;;;;;;;;;;;;;;35.67;28.94;100753.66;5058383;28;19962;-85
2023/07/12 10:58:19;;;;;;;;;;;;;;;35.64;28.67;100767.63;5053032;28;19924;-86
2023/07/12 11:00:48;;;;;;;;;;;;;;;35.65;29.04;100775.56;5053051;28;19920;-86
2023/07/12 11:03:16;;;;;;;;;;;;;;;35.70;28.56;100775.09;5053277;28;19920;-88
2023/07/12 11:05:43;;;;;;;;;;;;;;;35.72;28.56;100767.09;5068011;28;20017;-86
2023/07/12 11:08:38;;;;;;;;;;;;;;;35.81;28.50;100782.53;5053714;28;19929;-91
2023/07/12 11:11:09;;;;;;;;;;;;;;;35.72;28.19;100781.03;5042353;28;19921;-86
2023/07/12 11:13:41;;;;;;;;;;;;;;;35.67;28.49;100773.16;5048244;28;19954;-85
2023/07/12 11:16:13;;;;;;;;;;;;;;;35.67;28.56;100773.16;5057351;28;20031;-87
2023/07/12 11:18:46;;;;;;;;;;;;;;;35.85;28.29;100777.72;5061012;28;19916;-87
2023/07/12 11:21:39;;;;;;;;;;;;;;;36.03;27.84;100781.03;5054003;28;20569;-86
2023/07/12 11:24:41;;;;;;;;;;;;;;;36.10;28.09;100782.94;5053705;28;19920;-86
2023/07/12 11:27:23;;;;;;;;;;;;;;;36.22;27.79;100777.53;4996123;28;20365;-85
2023/07/12 11:29:52;;;;;;;;;;;;;;;36.38;27.63;100776.13;5041081;28;19928;-85
2023/07/12 11:32:27;;;;;;;;;;;;;;;36.49;27.78;100774.75;5051667;28;19963;-86
2023/07/12 11:35:11;;;;;;;;;;;;;;;36.41;27.50;100778.84;5051782;28;19924;-86
2023/07/12 11:37:40;;;;;;;;;;;;;;;36.19;27.40;100781.19;5051649;28;19942;-88
2023/07/12 11:40:22;;;;;;;;;;;;;;;36.12;27.55;100784.09;5054280;28;19959;-86
2023/07/12 11:42:49;;;;;;;;;;;;;;;36.02;27.87;100787.81;5047696;28;20008;-87
2023/07/12 11:45:15;;;;;;;;;;;;;;;35.95;27.88;100782.38;5048393;28;19927;-88
2023/07/12 11:47:46;;;;;;;;;;;;;;;35.88;28.00;100799.97;5051199;28;20388;-87
2023/07/12 11:50:20;;;;;;;;;;;;;;;35.78;27.90;100800.91;5057521;28;19978;-86
2023/07/12 11:52:46;;;;;;;;;;;;;;;35.70;27.93;100805.75;5053563;28;20154;-85
2023/07/12 11:55:15;;;;;;;;;;;;;;;35.64;28.18;100813.00;5049822;28;20467;-86
2023/07/12 11:57:42;;;;;;;;;;;;;;;35.58;28.21;100814.69;5048145;28;19952;-86
2023/07/12 12:00:14;;;;;;;;;;;;;;;35.53;28.33;100809.56;5057713;28;19965;-85
2023/07/12 12:02:41;;;;;;;;;;;;;;;35.43;28.04;100818.88;5050268;28;20468;-86
2023/07/12 12:05:14;;;;;;;;;;;;;;;35.37;27.95;100823.28;5058443;28;19943;-86
2023/07/12 12:07:40;;;;;;;;;;;;;;;35.45;28.17;100815.66;5056906;28;19947;-89
2023/07/12 12:10:07;;;;;;;;;;;;;;;35.62;27.66;100800.72;5061150;28;20377;-90
2023/07/12 12:12:32;;;;;;;;;;;;;;;35.85;27.63;100800.03;5055013;28;19920;-89
2023/07/12 12:14:58;;;;;;;;;;;;;;;36.01;27.42;100795.41;5059840;28;19916;-86
2023/07/12 12:17:30;;;;;;;;;;;;;;;36.16;27.15;100798.75;5063519;28;19920;-90
2023/07/12 12:20:10;;;;;;;;;;;;;;;36.26;27.35;100795.00;5064715;28;19916;-89
2023/07/12 12:22:38;;;;;;;;;;;;;;;36.29;27.12;100794.19;5060917;28;19936;-92
2023/07/12 12:25:04;;;;;;;;;;;;;;;36.36;26.92;100798.09;5071461;28;19921;-90
2023/07/12 12:27:34;;;;;;;;;;;;;;;36.53;27.44;100797.00;5062633;28;19928;-91
2023/07/12 12:30:07;;;;;;;;;;;;;;;36.62;26.78;100802.81;5059100;28;19920;-89
2023/07/12 12:32:38;;;;;;;;;;;;;;;36.50;26.80;100801.44;5054726;28;20650;-89
2023/07/12 12:35:04;;;;;;;;;;;;;;;36.38;27.10;100812.41;5060466;28;19923;-89
2023/07/12 12:37:29;;;;;;;;;;;;;;;36.25;26.98;100812.94;5065076;28;19920;-88